This is the latest recevied weather packets stored in our database for station/object W4SKW. If no packets are shown the sender has not sent any weather packets the latest 10 day(s).
| Time | Temp. | Humidity | Pressure | Rain* | Wind** | Luminosity | Snow |
|---|---|---|---|---|---|---|---|
| 1778086747 | 20.56° C | 92% | 1015.1 hPa | 0 mm | - | 177 W/m² | - |
| 1778086445 | 20.56° C | 93% | 1015.1 hPa | 0 mm | - | 129 W/m² | - |
| 1778085927 | 20.56° C | 95% | 1015.3 hPa | 0 mm | - | 233 W/m² | - |
| 1778085625 | 20.56° C | 95% | 1015.3 hPa | 0 mm | - | 233 W/m² | - |
| 1778085321 | 20° C | 95% | 1015.2 hPa | 0 mm | - | 365 W/m² | - |
| 1778085016 | 19.44° C | 95% | 1015.3 hPa | 0 mm | - | 196 W/m² | - |
| 1778084712 | 19.44° C | 95% | 1015.4 hPa | 0 mm | - | 122 W/m² | - |
| 1778084404 | 19.44° C | 96% | 1015.6 hPa | 0 mm | - | 147 W/m² | - |
| 1778084101 | 18.89° C | 95% | 1015.6 hPa | 0 mm | - | 99 W/m² | - |
| 1778083798 | 18.89° C | 96% | 1015.4 hPa | 0 mm | - | 114 W/m² | - |
| 1778083496 | 18.89° C | 95% | 1015.5 hPa | 0 mm | - | 144 W/m² | - |
| 1778083193 | 18.89° C | 95% | 1015.8 hPa | 0 mm | - | 57 W/m² | - |
| 1778082891 | 18.89° C | 95% | 1015.9 hPa | 0 mm | - | 49 W/m² | - |
| 1778081783 | 18.89° C | 95% | 1016 hPa | 0 mm | - | 37 W/m² | - |
| 1778081480 | 18.89° C | 95% | 1015.3 hPa | 0 mm | - | 45 W/m² | - |
| 1778081177 | 18.89° C | 95% | 1015.2 hPa | 0 mm | - | 68 W/m² | - |
| 1778080875 | 18.89° C | 94% | 1015.3 hPa | 0 mm | - | 18 W/m² | - |
| 1778080573 | 18.33° C | 94% | 1014.9 hPa | 3.05 mm | - | 94 W/m² | - |
| 1778080270 | 18.33° C | 94% | 1014.9 hPa | 3.05 mm | - | 94 W/m² | - |
| 1778079967 | 18.33° C | 94% | 1015.6 hPa | 4.32 mm | - | 81 W/m² | - |
| 1778079663 | 18.33° C | 94% | 1016.9 hPa | 1.27 mm | - | 40 W/m² | - |
| 1778079360 | 18.33° C | 94% | 1017.3 hPa | 0 mm | - | 10 W/m² | - |
| 1778078982 | 18.33° C | 92% | 1016.7 hPa | 1.27 mm | - | 63 W/m² | - |
| 1778078678 | 18.33° C | 92% | 1016.7 hPa | 1.27 mm | - | 63 W/m² | - |
| 1778078377 | 18.33° C | 92% | 1016.4 hPa | 1.27 mm | - | 47 W/m² | - |
* Rain latest hour (hover to see other rain measurements)
** Current wind speed in m/s (hover to see current wind gust speed)